Time;durP1;ratioP1;P1;durP2;ratioP2;P2;SDS_P1;SDS_P2;PMS_P1;PMS_P2;Temp;Humidity;BMP_temperature;BMP_pressure;BME280_temperature;BME280_humidity;BME280_pressure;Samples;Min_cycle;Max_cycle;Signal;HPM_P1;HPM_P2
2021/09/27 00:00:59;;;;;;;9.45;7.28;;;15.90;99.90;;;;;;5014300;28;20018;-46
2021/09/27 00:03:26;;;;;;;10.43;8.52;;;15.90;99.90;;;;;;5014154;28;20033;-47
2021/09/27 00:05:52;;;;;;;9.43;6.93;;;15.90;99.90;;;;;;5014083;28;20060;-50
2021/09/27 00:08:18;;;;;;;8.98;6.82;;;15.90;99.90;;;;;;5014217;28;20101;-47
2021/09/27 00:11:06;;;;;;;8.02;6.70;;;15.90;99.90;;;;;;5014134;28;20488;-46
2021/09/27 00:13:35;;;;;;;9.38;6.32;;;15.80;99.90;;;;;;5013569;28;20065;-48
2021/09/27 00:16:03;;;;;;;8.05;6.95;;;15.80;99.90;;;;;;5033705;28;20068;-47
2021/09/27 00:18:29;;;;;;;9.63;7.15;;;15.80;99.90;;;;;;5033742;28;20378;-50
2021/09/27 00:20:58;;;;;;;8.15;6.15;;;15.80;99.90;;;;;;5033747;28;20082;-48
2021/09/27 00:23:25;;;;;;;10.00;7.00;;;15.70;99.90;;;;;;5033492;28;20029;-51
2021/09/27 00:25:51;;;;;;;7.97;6.82;;;15.70;99.90;;;;;;5033599;28;20018;-47
2021/09/27 00:28:18;;;;;;;9.90;6.93;;;15.70;99.90;;;;;;5031877;28;20079;-47
2021/09/27 00:30:44;;;;;;;9.25;6.78;;;15.70;99.90;;;;;;5033481;28;20020;-47
2021/09/27 00:33:10;;;;;;;8.75;6.45;;;15.70;99.90;;;;;;5033610;28;20021;-45
2021/09/27 00:35:37;;;;;;;7.00;5.65;;;15.70;99.90;;;;;;5031315;28;20088;-47
2021/09/27 00:38:04;;;;;;;8.43;6.50;;;15.70;99.90;;;;;;5013475;28;20026;-48
2021/09/27 00:40:34;;;;;;;8.80;6.22;;;15.70;99.90;;;;;;5013532;28;20484;-47
2021/09/27 00:43:00;;;;;;;8.65;6.45;;;15.80;99.90;;;;;;5012175;28;20083;-49
2021/09/27 00:45:33;;;;;;;9.68;6.93;;;15.80;99.90;;;;;;5013373;28;20109;-45
2021/09/27 00:47:59;;;;;;;8.93;6.90;;;15.80;99.90;;;;;;5013339;28;20030;-47
2021/09/27 00:50:28;;;;;;;8.00;6.65;;;15.80;99.90;;;;;;5013293;28;20036;-45
2021/09/27 00:52:54;;;;;;;8.90;7.10;;;15.80;99.90;;;;;;5013403;28;20053;-47
2021/09/27 00:55:23;;;;;;;9.32;7.25;;;15.70;99.90;;;;;;5013292;28;20061;-47
2021/09/27 00:57:49;;;;;;;9.15;6.93;;;15.70;99.90;;;;;;5012075;28;20028;-45
2021/09/27 01:00:19;;;;;;;8.35;6.50;;;15.70;99.90;;;;;;5013171;28;20018;-45
2021/09/27 01:02:45;;;;;;;8.10;6.78;;;15.70;99.90;;;;;;5013173;28;20034;-44
2021/09/27 01:05:13;;;;;;;7.82;6.50;;;15.60;99.90;;;;;;5012913;28;20469;-45
2021/09/27 01:07:57;;;;;;;8.85;6.75;;;15.60;99.90;;;;;;5013229;28;20053;-46
2021/09/27 01:10:53;;;;;;;8.95;6.93;;;15.60;99.90;;;;;;5013071;28;20026;-49
2021/09/27 01:14:02;;;;;;;10.73;7.03;;;15.60;99.90;;;;;;5008771;28;20101;-47
2021/09/27 01:16:40;;;;;;;9.75;6.47;;;15.60;99.90;;;;;;5012678;28;20053;-45
2021/09/27 01:19:32;;;;;;;10.18;6.35;;;15.50;99.90;;;;;;5012621;28;20025;-45
2021/09/27 01:22:19;;;;;;;7.13;6.30;;;15.50;99.90;;;;;;5012764;28;20030;-44
2021/09/27 01:25:29;;;;;;;6.93;5.72;;;15.40;99.90;;;;;;5012783;28;20033;-46
2021/09/27 01:28:26;;;;;;;9.15;5.18;;;15.40;99.90;;;;;;5011554;28;20474;-49
2021/09/27 01:31:14;;;;;;;6.63;5.50;;;15.40;99.90;;;;;;5012448;28;20080;-47
2021/09/27 01:33:46;;;;;;;8.60;5.82;;;15.30;99.90;;;;;;5011805;28;20430;-45
2021/09/27 01:36:30;;;;;;;6.90;4.63;;;15.40;99.90;;;;;;5019405;28;20028;-49
2021/09/27 01:39:04;;;;;;;7.43;5.90;;;15.40;99.90;;;;;;5032329;28;20029;-45
2021/09/27 01:41:40;;;;;;;10.75;6.50;;;15.40;99.90;;;;;;5032561;28;20153;-47
2021/09/27 01:44:12;;;;;;;5.95;5.25;;;15.40;99.90;;;;;;5030719;28;20034;-45
2021/09/27 01:46:54;;;;;;;8.77;6.18;;;15.50;99.90;;;;;;5032593;28;20427;-49
2021/09/27 01:49:34;;;;;;;7.15;6.25;;;15.60;99.90;;;;;;5032404;28;20119;-46
2021/09/27 01:52:18;;;;;;;7.60;6.00;;;15.60;99.90;;;;;;5032256;28;20272;-45
2021/09/27 01:54:47;;;;;;;6.90;5.63;;;15.70;99.90;;;;;;5032187;28;20159;-47
2021/09/27 01:57:29;;;;;;;8.55;6.50;;;15.70;99.90;;;;;;5030831;28;20041;-48
2021/09/27 02:00:09;;;;;;;6.75;5.90;;;15.70;99.90;;;;;;5032918;28;20474;-46
2021/09/27 02:02:57;;;;;;;9.88;5.95;;;15.80;99.90;;;;;;5036316;28;20081;-45
2021/09/27 02:05:52;;;;;;;7.20;5.50;;;15.80;99.90;;;;;;5036200;28;20030;-45
2021/09/27 02:08:56;;;;;;;6.55;5.72;;;15.80;99.90;;;;;;5034166;28;20124;-45
2021/09/27 02:11:29;;;;;;;7.88;5.80;;;15.80;99.90;;;;;;5036222;28;20469;-45
2021/09/27 02:14:12;;;;;;;9.10;6.05;;;15.80;99.90;;;;;;5030634;28;20030;-47
2021/09/27 02:17:06;;;;;;;7.25;6.28;;;15.80;99.90;;;;;;5016410;28;20026;-47
2021/09/27 02:19:50;;;;;;;7.00;5.85;;;15.80;99.90;;;;;;5016207;28;20388;-45
2021/09/27 02:22:40;;;;;;;7.78;6.13;;;15.90;99.90;;;;;;5016028;28;20184;-48
2021/09/27 02:25:23;;;;;;;8.20;5.53;;;15.90;99.90;;;;;;5016223;28;20029;-46
2021/09/27 02:27:51;;;;;;;9.02;5.90;;;15.90;99.90;;;;;;5014847;28;20083;-48
2021/09/27 02:30:21;;;;;;;6.47;5.38;;;15.90;99.90;;;;;;5016004;28;20030;-45
2021/09/27 02:32:53;;;;;;;6.50;4.70;;;15.80;99.90;;;;;;5015875;28;20389;-45
2021/09/27 02:35:29;;;;;;;7.25;5.05;;;15.90;99.90;;;;;;5015812;28;20124;-45
2021/09/27 02:38:05;;;;;;;8.23;6.18;;;15.90;99.90;;;;;;5015994;28;20489;-47
2021/09/27 02:40:58;;;;;;;7.20;5.22;;;15.80;99.90;;;;;;5015823;28;20039;-45
2021/09/27 02:43:25;;;;;;;6.97;5.60;;;15.90;99.90;;;;;;5008965;28;20038;-47
2021/09/27 02:45:51;;;;;;;6.38;4.70;;;15.80;99.90;;;;;;5015796;28;20014;-47
2021/09/27 02:48:39;;;;;;;11.10;5.85;;;15.80;99.90;;;;;;5015619;28;20026;-47
2021/09/27 02:51:06;;;;;;;6.95;5.55;;;15.80;99.90;;;;;;5015558;28;20029;-47
2021/09/27 02:53:32;;;;;;;6.63;5.18;;;15.90;99.90;;;;;;5015701;28;20026;-46
2021/09/27 02:56:24;;;;;;;7.55;5.53;;;15.80;99.90;;;;;;5015449;28;20420;-45
2021/09/27 02:59:17;;;;;;;5.75;5.05;;;15.80;99.90;;;;;;5014383;28;20049;-50
2021/09/27 03:01:59;;;;;;;6.85;4.88;;;15.80;99.90;;;;;;5015521;28;20030;-47
2021/09/27 03:05:00;;;;;;;6.07;4.97;;;15.80;99.90;;;;;;5015484;28;20113;-47
2021/09/27 03:07:59;;;;;;;6.20;4.30;;;15.90;99.90;;;;;;5015328;28;20072;-50
2021/09/27 03:11:01;;;;;;;6.43;4.95;;;15.90;99.90;;;;;;5015139;28;20037;-50
2021/09/27 03:13:41;;;;;;;6.40;5.18;;;15.90;99.90;;;;;;5013991;28;20087;-47
2021/09/27 03:16:21;;;;;;;8.20;6.68;;;15.90;99.90;;;;;;5034648;28;20017;-49
2021/09/27 03:18:56;;;;;;;6.35;5.43;;;15.90;99.90;;;;;;5034811;28;20117;-48
2021/09/27 03:21:53;;;;;;;9.27;4.77;;;15.90;99.90;;;;;;5034802;28;20354;-46
2021/09/27 03:24:42;;;;;;;6.63;5.25;;;15.90;99.90;;;;;;5034772;28;20025;-44
2021/09/27 03:27:16;;;;;;;7.88;5.97;;;15.90;99.90;;;;;;5033252;28;20045;-47
2021/09/27 03:30:03;;;;;;;7.25;5.53;;;15.90;99.90;;;;;;5034662;28;20033;-48
2021/09/27 03:32:57;;;;;;;7.60;5.43;;;15.90;99.90;;;;;;5034549;28;20500;-45
2021/09/27 03:35:39;;;;;;;7.10;5.55;;;15.90;99.90;;;;;;5034033;28;20034;-47
2021/09/27 03:38:28;;;;;;;5.00;4.50;;;15.90;99.90;;;;;;5014843;28;20033;-48
2021/09/27 03:41:15;;;;;;;6.95;4.15;;;15.90;99.90;;;;;;5014718;28;20025;-45
2021/09/27 03:43:58;;;;;;;7.63;5.78;;;15.80;99.90;;;;;;5013406;28;20147;-46
2021/09/27 03:46:36;;;;;;;7.68;6.07;;;15.80;99.90;;;;;;5014620;28;20028;-45
2021/09/27 03:49:09;;;;;;;6.10;4.70;;;15.80;99.90;;;;;;5014629;28;20140;-47
2021/09/27 03:51:54;;;;;;;7.22;4.53;;;15.80;99.90;;;;;;5014518;28;20488;-45
2021/09/27 03:54:29;;;;;;;5.97;5.20;;;15.80;99.90;;;;;;5014420;28;20033;-44
2021/09/27 03:57:07;;;;;;;6.30;4.70;;;15.70;99.90;;;;;;5014473;28;20105;-44
2021/09/27 03:59:46;;;;;;;7.35;5.13;;;15.70;99.90;;;;;;5014673;28;20057;-47
2021/09/27 04:02:25;;;;;;;5.38;4.22;;;15.70;99.90;;;;;;5014354;28;20029;-47
2021/09/27 04:05:02;;;;;;;5.70;4.43;;;15.60;99.90;;;;;;5014160;28;20030;-47
2021/09/27 04:07:52;;;;;;;5.32;4.28;;;15.60;99.90;;;;;;5014266;28;20049;-45
2021/09/27 04:10:46;;;;;;;5.40;4.28;;;15.60;99.90;;;;;;5014301;28;20029;-47
2021/09/27 04:13:32;;;;;;;8.25;4.95;;;15.50;99.90;;;;;;5012900;28;20026;-46
2021/09/27 04:16:13;;;;;;;5.72;4.20;;;15.50;99.90;;;;;;5014058;28;20392;-45
2021/09/27 04:18:51;;;;;;;4.88;4.35;;;15.50;99.90;;;;;;5014116;28;20378;-45
2021/09/27 04:21:24;;;;;;;7.35;4.93;;;15.40;99.90;;;;;;5013707;28;20037;-46
2021/09/27 04:24:06;;;;;;;6.07;5.22;;;15.40;99.90;;;;;;5013449;28;20037;-46
2021/09/27 04:27:04;;;;;;;8.48;5.28;;;15.40;99.90;;;;;;5031570;28;20033;-46
2021/09/27 04:29:32;;;;;;;8.32;6.60;;;15.40;99.90;;;;;;5033453;28;20021;-49
2021/09/27 04:32:29;;;;;;;7.15;5.45;;;15.40;99.90;;;;;;5033431;28;20477;-45
2021/09/27 04:35:13;;;;;;;6.47;5.40;;;15.40;99.90;;;;;;5033352;28;20064;-46
2021/09/27 04:37:41;;;;;;;6.95;5.82;;;15.30;99.90;;;;;;5033484;28;20022;-47
2021/09/27 04:40:10;;;;;;;9.00;7.28;;;15.30;99.90;;;;;;5029040;28;20025;-45
2021/09/27 04:42:46;;;;;;;7.05;6.10;;;15.20;99.90;;;;;;5031948;28;20018;-46
2021/09/27 04:45:44;;;;;;;7.57;5.30;;;15.20;99.90;;;;;;5032945;28;20547;-48
2021/09/27 04:48:28;;;;;;;9.85;6.55;;;15.20;99.90;;;;;;5022054;28;20083;-45
2021/09/27 04:51:13;;;;;;;9.73;7.00;;;15.10;99.90;;;;;;5032967;28;20493;-47
2021/09/27 04:54:08;;;;;;;9.30;7.10;;;15.10;99.90;;;;;;5033265;28;20113;-48
2021/09/27 04:57:03;;;;;;;10.45;6.57;;;15.10;99.90;;;;;;5032694;28;20408;-49
2021/09/27 04:59:52;;;;;;;9.18;6.75;;;15.10;99.90;;;;;;5033064;28;20022;-47
2021/09/27 05:02:33;;;;;;;9.10;6.50;;;15.10;99.90;;;;;;5032803;28;20018;-50
2021/09/27 05:05:06;;;;;;;10.48;7.47;;;15.10;99.90;;;;;;5032795;28;20030;-46
2021/09/27 05:07:44;;;;;;;10.77;7.18;;;15.20;99.90;;;;;;5032745;28;20081;-48
2021/09/27 05:10:37;;;;;;;9.77;7.13;;;15.20;99.90;;;;;;5032826;28;20021;-48
2021/09/27 05:13:17;;;;;;;8.45;6.65;;;15.30;99.90;;;;;;5031619;28;20453;-47
2021/09/27 05:15:59;;;;;;;9.02;7.32;;;15.30;99.90;;;;;;5032561;28;20258;-51
2021/09/27 05:18:44;;;;;;;8.25;6.90;;;15.30;99.90;;;;;;5032789;28;20026;-51
2021/09/27 05:21:31;;;;;;;9.93;7.47;;;15.40;99.90;;;;;;5032424;28;20036;-48
2021/09/27 05:24:22;;;;;;;6.53;5.38;;;15.50;99.90;;;;;;5032656;28;20032;-46
2021/09/27 05:27:16;;;;;;;8.57;6.53;;;15.40;99.90;;;;;;5032699;28;20025;-51
2021/09/27 05:30:01;;;;;;;7.25;6.13;;;15.60;99.90;;;;;;5031403;28;20034;-47
2021/09/27 05:32:45;;;;;;;7.65;5.85;;;15.60;99.90;;;;;;5032417;28;20030;-50
2021/09/27 05:35:39;;;;;;;10.65;7.78;;;15.60;99.90;;;;;;5031638;28;20491;-48
2021/09/27 05:38:31;;;;;;;9.43;7.03;;;15.60;99.90;;;;;;5013014;28;20053;-48
2021/09/27 05:41:41;;;;;;;12.10;7.45;;;15.60;99.90;;;;;;5012693;28;20030;-48
2021/09/27 05:44:16;;;;;;;8.45;7.50;;;15.70;99.90;;;;;;5009419;28;20148;-47
2021/09/27 05:47:06;;;;;;;10.10;7.20;;;15.80;99.90;;;;;;5012676;28;20457;-47
2021/09/27 05:50:04;;;;;;;9.73;7.97;;;15.90;99.90;;;;;;5009299;28;20397;-48
2021/09/27 05:52:52;;;;;;;9.70;7.78;;;15.90;99.90;;;;;;5012393;28;20485;-46
2021/09/27 05:55:32;;;;;;;9.73;7.28;;;16.00;99.90;;;;;;5012447;28;20488;-48
2021/09/27 05:58:05;;;;;;;9.13;7.13;;;16.20;99.90;;;;;;5011467;28;20117;-47
2021/09/27 06:00:44;;;;;;;9.98;6.78;;;16.30;99.90;;;;;;5012521;28;20128;-50
2021/09/27 06:03:35;;;;;;;12.85;8.10;;;16.40;99.90;;;;;;5012564;28;20030;-48
2021/09/27 06:06:22;;;;;;;9.50;7.63;;;16.50;99.90;;;;;;4973634;28;20053;-47
2021/09/27 06:08:55;;;;;;;9.85;7.63;;;16.60;99.90;;;;;;4994035;28;20065;-48
2021/09/27 06:11:44;;;;;;;9.20;6.95;;;16.70;99.90;;;;;;5012459;28;20029;-49
2021/09/27 06:14:15;;;;;;;8.30;6.90;;;17.00;99.90;;;;;;5017645;28;20025;-48
2021/09/27 06:17:02;;;;;;;8.77;6.63;;;17.30;99.90;;;;;;5032044;28;20124;-47
2021/09/27 06:20:04;;;;;;;8.55;7.65;;;17.70;99.90;;;;;;5032224;28;20464;-46
2021/09/27 06:22:42;;;;;;;12.10;8.40;;;17.90;99.90;;;;;;5031991;28;20110;-50
2021/09/27 06:25:26;;;;;;;10.80;7.10;;;18.10;99.90;;;;;;5032171;28;20030;-48
2021/09/27 06:28:04;;;;;;;9.43;6.40;;;18.30;99.90;;;;;;5031136;28;20033;-46
2021/09/27 06:31:01;;;;;;;9.50;7.88;;;18.60;99.90;;;;;;5031949;28;20022;-50
2021/09/27 06:33:45;;;;;;;;;;;18.70;99.90;;;;;;5032561;28;20033;-48
2021/09/27 06:36:20;;;;;;;8.73;7.45;;;19.00;99.90;;;;;;5025348;28;19913;-51
2021/09/27 06:38:50;;;;;;;7.32;6.57;;;19.30;99.90;;;;;;5012240;28;20113;-49
2021/09/27 06:41:19;;;;;;;11.05;8.43;;;19.40;99.90;;;;;;5012043;28;20026;-45
2021/09/27 06:43:44;;;;;;;11.10;7.07;;;19.50;99.90;;;;;;5011303;28;20022;-49
2021/09/27 06:46:10;;;;;;;10.10;7.38;;;19.80;99.90;;;;;;5013168;28;20033;-48
2021/09/27 06:48:35;;;;;;;9.50;6.93;;;19.80;99.90;;;;;;5015752;28;20022;-47
2021/09/27 06:51:01;;;;;;;10.15;6.95;;;19.80;99.90;;;;;;5015706;28;20022;-48
2021/09/27 06:53:28;;;;;;;12.52;7.32;;;19.80;99.90;;;;;;5015495;28;20057;-49
2021/09/27 06:55:54;;;;;;;9.23;7.00;;;20.10;99.90;;;;;;5015715;28;20458;-48
2021/09/27 06:58:23;;;;;;;10.40;7.90;;;20.50;99.90;;;;;;5014658;28;20407;-48
2021/09/27 07:00:49;;;;;;;8.13;6.82;;;20.70;99.90;;;;;;5015673;28;20032;-49
2021/09/27 07:03:14;;;;;;;7.47;5.63;;;21.00;99.90;;;;;;5015523;28;20022;-48
2021/09/27 07:05:40;;;;;;;7.93;6.15;;;21.50;99.90;;;;;;5015294;28;20030;-49
2021/09/27 07:08:05;;;;;;;7.95;5.90;;;22.00;99.90;;;;;;5015258;28;20033;-48
2021/09/27 07:10:31;;;;;;;8.05;5.50;;;22.30;99.90;;;;;;5015391;28;20065;-48
2021/09/27 07:12:56;;;;;;;8.00;6.72;;;22.50;99.90;;;;;;5014416;28;20037;-53
2021/09/27 07:15:22;;;;;;;7.70;6.90;;;22.30;98.40;;;;;;5031205;28;20026;-53
2021/09/27 07:17:48;;;;;;;8.20;7.25;;;21.90;96.20;;;;;;5034981;28;20076;-49
2021/09/27 07:20:17;;;;;;;10.55;7.78;;;21.60;97.60;;;;;;5035084;28;20028;-51
2021/09/27 07:22:43;;;;;;;8.40;6.95;;;21.40;99.20;;;;;;5034597;28;20018;-48
2021/09/27 07:25:10;;;;;;;7.82;6.68;;;21.50;99.90;;;;;;5034986;28;20378;-50
2021/09/27 07:27:36;;;;;;;8.75;7.35;;;21.60;99.90;;;;;;5033834;28;20071;-46
2021/09/27 07:30:03;;;;;;;8.07;7.20;;;21.50;99.70;;;;;;5035194;28;20042;-50
2021/09/27 07:32:29;;;;;;;7.72;6.93;;;21.30;99.90;;;;;;5034722;28;20030;-49
2021/09/27 07:34:54;;;;;;;9.30;8.10;;;21.60;99.90;;;;;;5034733;28;20037;-48
2021/09/27 07:37:20;;;;;;;9.20;7.22;;;21.80;96.10;;;;;;5018408;28;20049;-49
2021/09/27 07:39:45;;;;;;;8.93;6.10;;;22.10;99.90;;;;;;5014789;28;20026;-49
2021/09/27 07:42:11;;;;;;;8.60;6.53;;;22.40;99.90;;;;;;5013846;28;20096;-48
2021/09/27 07:44:37;;;;;;;8.65;7.75;;;22.90;96.80;;;;;;5014782;28;20392;-47
2021/09/27 07:47:03;;;;;;;10.88;8.23;;;22.60;91.50;;;;;;5014770;28;20460;-48
2021/09/27 07:49:29;;;;;;;10.68;7.63;;;22.20;94.50;;;;;;5014716;28;20477;-49
2021/09/27 07:51:57;;;;;;;10.50;8.15;;;22.00;98.20;;;;;;5014412;28;20137;-47
2021/09/27 07:54:22;;;;;;;7.85;6.50;;;22.10;97.80;;;;;;5014471;28;20026;-47
2021/09/27 07:56:49;;;;;;;8.23;6.88;;;22.30;98.00;;;;;;5014349;28;20036;-50
2021/09/27 07:59:15;;;;;;;8.88;7.82;;;22.40;91.80;;;;;;5012905;28;20025;-47
2021/09/27 08:01:40;;;;;;;10.07;7.93;;;21.90;97.60;;;;;;5014346;28;20182;-48
2021/09/27 08:04:06;;;;;;;9.70;7.30;;;21.90;94.30;;;;;;5014435;28;20101;-46
2021/09/27 08:06:32;;;;;;;10.27;7.38;;;21.90;97.20;;;;;;5014019;28;20069;-48
2021/09/27 08:08:57;;;;;;;8.30;7.18;;;21.60;97.50;;;;;;5014147;28;20026;-48
2021/09/27 08:11:23;;;;;;;8.73;7.25;;;21.30;98.30;;;;;;5014531;28;20042;-50
2021/09/27 08:13:48;;;;;;;8.90;8.00;;;21.30;99.90;;;;;;5014877;28;20037;-50
2021/09/27 08:16:14;;;;;;;9.18;8.02;;;21.00;99.90;;;;;;5034040;28;20036;-48
2021/09/27 08:18:39;;;;;;;10.63;8.50;;;20.90;99.90;;;;;;5033855;28;20021;-46
2021/09/27 08:21:08;;;;;;;9.50;8.30;;;20.60;99.90;;;;;;5033823;28;20017;-53
2021/09/27 08:23:34;;;;;;;9.70;7.43;;;20.50;99.90;;;;;;5033437;28;20036;-47
2021/09/27 08:26:01;;;;;;;13.70;9.73;;;20.40;99.90;;;;;;5033865;28;20025;-48
2021/09/27 08:28:29;;;;;;;10.75;7.97;;;20.10;99.90;;;;;;5032841;28;20044;-53
2021/09/27 08:30:59;;;;;;;14.10;9.60;;;20.10;99.90;;;;;;5033645;28;20022;-48
2021/09/27 08:33:26;;;;;;;9.07;8.15;;;20.10;99.90;;;;;;5033579;28;20092;-47
2021/09/27 08:35:53;;;;;;;9.95;8.05;;;20.20;99.90;;;;;;5029277;28;20022;-51
2021/09/27 08:38:22;;;;;;;11.65;8.23;;;20.10;99.90;;;;;;5014995;28;20102;-47
2021/09/27 08:40:56;;;;;;;10.07;8.02;;;20.20;99.90;;;;;;5013693;28;20030;-49
2021/09/27 08:43:46;;;;;;;10.25;8.98;;;20.30;99.90;;;;;;5012688;28;20049;-45
2021/09/27 08:46:28;;;;;;;11.00;9.40;;;20.10;99.90;;;;;;5013585;28;20113;-46
2021/09/27 08:49:04;;;;;;;10.65;9.45;;;20.00;99.90;;;;;;5013461;28;20029;-49
2021/09/27 08:51:31;;;;;;;10.65;8.90;;;20.00;99.90;;;;;;5013622;28;20034;-52
2021/09/27 08:54:11;;;;;;;8.43;7.45;;;20.20;99.90;;;;;;5013373;28;20030;-49
2021/09/27 08:56:51;;;;;;;10.20;8.90;;;20.30;99.90;;;;;;5013238;28;20037;-48
2021/09/27 08:59:40;;;;;;;13.60;9.60;;;20.30;99.90;;;;;;5012804;28;20033;-52
2021/09/27 09:02:25;;;;;;;11.02;8.65;;;20.40;99.90;;;;;;5013324;28;20037;-48
2021/09/27 09:04:56;;;;;;;12.75;9.27;;;20.50;99.90;;;;;;5013490;28;20111;-50
2021/09/27 09:07:23;;;;;;;9.35;8.27;;;20.20;99.90;;;;;;5013088;28;20506;-48
2021/09/27 09:09:56;;;;;;;10.02;8.68;;;20.30;99.90;;;;;;5013014;28;20037;-51
2021/09/27 09:12:33;;;;;;;12.43;9.63;;;20.40;99.90;;;;;;5012348;28;20386;-47
2021/09/27 09:15:14;;;;;;;10.07;8.57;;;20.30;99.90;;;;;;5025915;28;20057;-48
2021/09/27 09:17:55;;;;;;;13.32;9.75;;;20.30;99.90;;;;;;5032672;28;20414;-48
2021/09/27 09:20:43;;;;;;;13.48;10.10;;;20.30;99.90;;;;;;5032974;28;20500;-49
2021/09/27 09:23:28;;;;;;;12.40;10.15;;;20.40;99.90;;;;;;5032816;28;20378;-48
2021/09/27 09:25:55;;;;;;;13.27;9.52;;;20.30;99.90;;;;;;5032306;28;20038;-49
2021/09/27 09:28:21;;;;;;;13.00;8.63;;;20.30;99.90;;;;;;5031782;28;20022;-49
2021/09/27 09:31:12;;;;;;;12.63;8.75;;;20.50;99.90;;;;;;5032684;28;20155;-52
2021/09/27 09:33:46;;;;;;;11.13;9.20;;;20.60;99.90;;;;;;5032455;28;20025;-48
2021/09/27 09:36:34;;;;;;;12.10;9.95;;;20.50;99.90;;;;;;5025654;28;20096;-46
2021/09/27 09:39:12;;;;;;;14.02;10.15;;;20.40;99.90;;;;;;5012404;28;21101;-50
2021/09/27 09:41:50;;;;;;;14.25;9.40;;;20.30;99.90;;;;;;5012569;28;20025;-50
2021/09/27 09:44:22;;;;;;;15.52;12.05;;;20.50;99.90;;;;;;5012137;28;20026;-51
2021/09/27 09:46:59;;;;;;;11.25;9.68;;;20.40;99.90;;;;;;5012663;28;20108;-48
2021/09/27 09:49:25;;;;;;;10.13;7.97;;;20.20;99.90;;;;;;5012798;28;20026;-49
2021/09/27 09:52:00;;;;;;;12.88;9.88;;;20.30;99.90;;;;;;5012779;28;20505;-49
2021/09/27 09:54:28;;;;;;;12.05;8.05;;;20.40;99.90;;;;;;5011477;28;20025;-51
2021/09/27 09:57:21;;;;;;;12.40;10.25;;;20.50;99.90;;;;;;5011789;28;20038;-53
2021/09/27 10:00:19;;;;;;;12.82;9.35;;;20.40;99.90;;;;;;5012533;28;20030;-51
2021/09/27 10:02:52;;;;;;;14.90;9.43;;;20.50;99.90;;;;;;5012534;28;20061;-50
2021/09/27 10:05:30;;;;;;;15.10;10.35;;;20.50;99.90;;;;;;5012645;28;20018;-48
2021/09/27 10:07:57;;;;;;;14.25;10.10;;;20.60;99.90;;;;;;5012277;28;20495;-51
2021/09/27 10:10:39;;;;;;;14.15;10.05;;;20.50;99.90;;;;;;5012645;28;20029;-49
2021/09/27 10:13:25;;;;;;;16.23;11.70;;;20.70;99.90;;;;;;5011417;28;20031;-52
2021/09/27 10:15:51;;;;;;;11.93;8.70;;;20.60;99.90;;;;;;5012379;28;20469;-49
2021/09/27 10:18:29;;;;;;;17.85;10.35;;;20.70;99.90;;;;;;5012470;28;20338;-49
2021/09/27 10:21:09;;;;;;;10.23;9.07;;;20.70;99.90;;;;;;5013152;28;20091;-50
2021/09/27 10:23:39;;;;;;;11.73;9.40;;;20.80;99.90;;;;;;5016359;28;20492;-51
2021/09/27 10:26:17;;;;;;;10.23;8.05;;;20.90;99.90;;;;;;5016292;28;20026;-48
2021/09/27 10:28:49;;;;;;;11.80;8.25;;;20.90;99.90;;;;;;5015185;28;20056;-54
2021/09/27 10:31:15;;;;;;;14.98;9.60;;;21.00;99.90;;;;;;5016232;28;20117;-50
2021/09/27 10:33:47;;;;;;;12.88;9.70;;;20.90;99.90;;;;;;5016049;28;20445;-50
2021/09/27 10:37:04;;;;;;;13.77;9.05;;;20.70;99.90;;;;;;5022972;28;20132;-50
2021/09/27 10:39:30;;;;;;;9.98;8.05;;;20.70;99.90;;;;;;5034422;28;20057;-49
2021/09/27 10:42:11;;;;;;;10.13;8.05;;;20.80;99.90;;;;;;5034604;28;20512;-47
2021/09/27 10:44:46;;;;;;;10.15;6.45;;;20.90;99.90;;;;;;5035588;28;20075;-52
2021/09/27 10:47:20;;;;;;;7.75;6.95;;;20.90;99.90;;;;;;5035662;28;20029;-50
2021/09/27 10:50:04;;;;;;;11.88;9.05;;;21.00;99.90;;;;;;5035500;28;20029;-52
2021/09/27 10:52:50;;;;;;;10.93;7.05;;;21.10;99.90;;;;;;5035631;28;20030;-51
2021/09/27 10:55:45;;;;;;;9.57;7.35;;;21.30;99.90;;;;;;5035454;28;20025;-48
2021/09/27 10:58:23;;;;;;;7.65;6.65;;;21.50;99.90;;;;;;5034366;28;20116;-54
2021/09/27 11:00:52;;;;;;;8.88;7.93;;;21.70;99.90;;;;;;5035359;28;20028;-50
2021/09/27 11:03:53;;;;;;;12.55;8.38;;;21.80;99.90;;;;;;5035252;28;20067;-53
2021/09/27 11:06:43;;;;;;;9.00;7.38;;;21.80;99.90;;;;;;5035003;28;20512;-52
2021/09/27 11:09:29;;;;;;;9.55;8.55;;;21.90;99.90;;;;;;5035182;28;20025;-52
2021/09/27 11:12:20;;;;;;;11.18;8.65;;;21.90;99.90;;;;;;5034109;28;20093;-48
2021/09/27 11:14:55;;;;;;;10.27;7.97;;;21.90;99.90;;;;;;5023921;28;20036;-49
2021/09/27 11:17:42;;;;;;;11.07;8.50;;;22.00;99.90;;;;;;5015549;28;20026;-51
2021/09/27 11:20:14;;;;;;;;;;;21.90;99.90;;;;;;5015592;28;20445;-51
2021/09/27 11:23:04;;;;;;;10.70;8.93;;;22.00;99.90;;;;;;5015241;28;20280;-53
2021/09/27 11:25:35;;;;;;;11.15;7.25;;;22.10;99.90;;;;;;5015364;28;20029;-49
2021/09/27 11:28:29;;;;;;;10.50;7.97;;;22.10;99.90;;;;;;5014192;28;20037;-49
2021/09/27 11:31:16;;;;;;;9.50;8.32;;;22.10;99.60;;;;;;5014993;28;20443;-52
2021/09/27 11:33:41;;;;;;;13.13;7.43;;;22.10;99.90;;;;;;5013730;28;20030;-54
2021/09/27 11:36:13;;;;;;;8.18;6.85;;;22.20;99.90;;;;;;5021058;28;20028;-53
2021/09/27 11:38:46;;;;;;;8.38;7.47;;;22.40;99.90;;;;;;5034654;28;20064;-48
2021/09/27 11:41:11;;;;;;;8.65;6.55;;;22.50;99.70;;;;;;5034730;28;20091;-48
2021/09/27 11:43:50;;;;;;;11.05;8.45;;;22.60;99.40;;;;;;5033400;28;20021;-47
2021/09/27 11:46:30;;;;;;;8.40;7.55;;;22.60;97.00;;;;;;5034551;28;20057;-49
2021/09/27 11:49:26;;;;;;;10.48;8.27;;;22.60;97.30;;;;;;5034301;28;20045;-49
2021/09/27 11:52:13;;;;;;;9.40;8.15;;;22.60;97.40;;;;;;5034333;28;20067;-50
2021/09/27 11:54:48;;;;;;;11.80;8.00;;;22.50;98.00;;;;;;5034334;28;20021;-50
2021/09/27 11:57:38;;;;;;;9.93;8.23;;;22.40;98.30;;;;;;5033552;28;20552;-49
2021/09/27 12:00:07;;;;;;;9.38;7.47;;;22.40;97.90;;;;;;5034016;28;20603;-48
2021/09/27 12:02:36;;;;;;;7.72;6.18;;;22.40;98.40;;;;;;5034353;28;20465;-49
2021/09/27 12:05:42;;;;;;;6.68;6.07;;;22.50;98.60;;;;;;5034065;28;20099;-47
2021/09/27 12:08:31;;;;;;;9.57;7.03;;;22.60;98.50;;;;;;5034163;28;20091;-50
2021/09/27 12:11:02;;;;;;;10.13;8.02;;;22.60;97.40;;;;;;5034121;28;20033;-49
2021/09/27 12:13:37;;;;;;;11.73;10.05;;;22.40;97.50;;;;;;5032690;28;20532;-48
2021/09/27 12:16:04;;;;;;;9.07;8.18;;;22.10;99.00;;;;;;5014141;28;20030;-46
2021/09/27 12:18:45;;;;;;;10.27;7.88;;;22.00;99.90;;;;;;5014161;28;20427;-49
2021/09/27 12:21:15;;;;;;;11.25;8.25;;;22.00;99.90;;;;;;5013980;28;20481;-50
2021/09/27 12:24:08;;;;;;;10.73;8.63;;;21.90;99.90;;;;;;5013787;28;20029;-50
2021/09/27 12:26:41;;;;;;;9.88;8.40;;;21.90;99.90;;;;;;5008449;28;20033;-47
2021/09/27 12:29:14;;;;;;;11.05;7.47;;;22.00;99.90;;;;;;5012872;28;20072;-47
2021/09/27 12:31:58;;;;;;;11.45;9.57;;;22.10;99.90;;;;;;5013886;28;20037;-48
2021/09/27 12:34:46;;;;;;;10.60;8.38;;;22.20;99.80;;;;;;5013575;28;20375;-50
2021/09/27 12:37:15;;;;;;;8.30;7.30;;;22.20;99.00;;;;;;5028638;28;20021;-49
2021/09/27 12:39:42;;;;;;;12.80;9.45;;;22.10;99.40;;;;;;5033535;28;20055;-48
2021/09/27 12:42:25;;;;;;;9.40;8.30;;;22.10;99.80;;;;;;5032515;28;20481;-47
2021/09/27 12:45:12;;;;;;;13.00;9.00;;;22.00;99.60;;;;;;5032855;28;20029;-48
2021/09/27 12:47:38;;;;;;;13.20;9.00;;;22.00;99.90;;;;;;5033546;28;20436;-51
2021/09/27 12:50:06;;;;;;;11.68;9.13;;;21.80;99.90;;;;;;5033254;28;20064;-50
2021/09/27 12:52:44;;;;;;;11.82;9.25;;;21.80;99.90;;;;;;5033276;28;20477;-52
2021/09/27 12:55:13;;;;;;;12.02;8.50;;;21.80;99.90;;;;;;5032909;28;20037;-49
2021/09/27 12:57:48;;;;;;;9.23;8.00;;;21.90;99.90;;;;;;5032453;28;20044;-48
2021/09/27 13:00:34;;;;;;;10.68;7.53;;;21.90;99.90;;;;;;5032873;28;20033;-54
2021/09/27 13:03:07;;;;;;;13.55;9.10;;;21.90;99.90;;;;;;5033011;28;20491;-49
2021/09/27 13:05:51;;;;;;;10.27;7.85;;;21.80;99.90;;;;;;5032896;28;20512;-48
2021/09/27 13:08:44;;;;;;;11.85;9.25;;;21.80;99.90;;;;;;5033008;28;20120;-51
2021/09/27 13:11:35;;;;;;;10.40;7.82;;;21.70;99.90;;;;;;5030394;28;20091;-51
2021/09/27 13:14:04;;;;;;;8.23;7.18;;;21.70;99.90;;;;;;5026893;28;20034;-49
2021/09/27 13:16:33;;;;;;;12.30;9.45;;;21.70;99.90;;;;;;5013252;28;20034;-48
2021/09/27 13:19:00;;;;;;;11.65;8.10;;;21.70;99.90;;;;;;5012981;28;20105;-49
2021/09/27 13:21:36;;;;;;;11.02;8.15;;;21.80;99.90;;;;;;5013172;28;20105;-51
2021/09/27 13:24:09;;;;;;;8.98;6.65;;;21.90;99.90;;;;;;5013004;28;20025;-53
2021/09/27 13:26:52;;;;;;;11.20;6.78;;;21.90;99.90;;;;;;5013167;28;20017;-48
2021/09/27 13:29:52;;;;;;;10.45;8.10;;;22.00;99.90;;;;;;5012880;28;20025;-50
2021/09/27 13:32:18;;;;;;;8.57;7.28;;;22.00;99.90;;;;;;4990813;28;20043;-51
2021/09/27 13:34:57;;;;;;;10.75;7.55;;;22.00;99.90;;;;;;5012865;28;20045;-52
2021/09/27 13:37:28;;;;;;;10.73;8.52;;;22.10;99.90;;;;;;5029208;28;20461;-48